Time;durP1;ratioP1;P1;durP2;ratioP2;P2;SDS_P1;SDS_P2;PMS_P1;PMS_P2;Temp;Humidity;BMP_temperature;BMP_pressure;BME280_temperature;BME280_humidity;BME280_pressure;Samples;Min_cycle;Max_cycle;Signal;HPM_P1;HPM_P2
2023/05/21 00:01:22;;;;;;;30.90;18.40;;;;;;;14.14;86.76;100779.40;108551;1267;22523;-79
2023/05/21 00:03:53;;;;;;;31.10;16.30;;;;;;;14.12;86.93;100775.79;108629;1267;22523;-79
2023/05/21 00:06:24;;;;;;;28.50;16.90;;;;;;;14.10;86.83;100777.04;108601;1274;22536;-80
2023/05/21 00:08:55;;;;;;;29.20;16.70;;;;;;;14.08;86.88;100777.01;108568;1274;22607;-80
2023/05/21 00:11:26;;;;;;;33.50;16.40;;;;;;;14.06;87.23;100774.75;108571;1261;22515;-80
2023/05/21 00:13:57;;;;;;;27.00;15.50;;;;;;;14.05;87.18;100773.35;108513;1270;27497;-80
2023/05/21 00:16:28;;;;;;;29.70;17.20;;;;;;;14.05;87.46;100771.71;108506;1270;23784;-80
2023/05/21 00:18:59;;;;;;;31.80;16.50;;;;;;;14.05;87.59;100775.80;108569;1266;22519;-80
2023/05/21 00:21:30;;;;;;;31.10;17.30;;;;;;;14.05;87.71;100770.89;108588;1267;24201;-80
2023/05/21 00:24:01;;;;;;;32.20;20.00;;;;;;;14.03;87.78;100769.40;108479;1267;24021;-80
2023/05/21 00:26:31;;;;;;;30.20;17.50;;;;;;;14.02;87.78;100768.92;108537;1266;22547;-80
2023/05/21 00:29:02;;;;;;;33.00;18.70;;;;;;;14.01;87.59;100761.60;108580;1266;23251;-80
2023/05/21 00:31:33;;;;;;;30.50;17.70;;;;;;;13.98;87.41;100762.79;108554;1274;23897;-79
2023/05/21 00:34:04;;;;;;;30.80;16.70;;;;;;;13.96;87.56;100761.64;108585;1266;22521;-80
2023/05/21 00:36:35;;;;;;;31.90;16.80;;;;;;;13.94;87.54;100763.90;108629;1266;22478;-79
2023/05/21 00:39:07;;;;;;;29.30;15.70;;;;;;;13.93;87.53;100756.23;108475;1274;22530;-80
2023/05/21 00:41:39;;;;;;;27.60;14.90;;;;;;;13.90;87.40;100756.65;108432;1266;25161;-80
2023/05/21 00:44:12;;;;;;;27.30;14.90;;;;;;;13.89;87.85;100756.70;108349;1266;22477;-79
2023/05/21 00:46:44;;;;;;;27.60;14.20;;;;;;;13.87;87.70;100758.65;108549;1266;23650;-79
2023/05/21 00:49:15;;;;;;;29.30;14.80;;;;;;;13.87;87.62;100763.40;108495;1270;23672;-80
2023/05/21 00:51:47;;;;;;;24.70;14.10;;;;;;;13.86;87.72;100763.20;108580;1263;22548;-80
2023/05/21 00:57:09;;;;;;;27.20;12.90;;;;;;;13.82;88.03;100764.52;108471;1274;22523;-81
2023/05/21 00:59:40;;;;;;;26.40;13.60;;;;;;;13.79;87.83;100770.89;108522;1266;22602;-80
2023/05/21 01:02:13;;;;;;;24.60;12.90;;;;;;;13.77;87.88;100763.88;108492;1266;22480;-80
2023/05/21 01:04:45;;;;;;;24.30;13.20;;;;;;;13.74;88.04;100762.66;108531;1266;22505;-81
2023/05/21 01:07:17;;;;;;;24.50;13.40;;;;;;;13.72;88.04;100761.32;108621;1274;22583;-81
2023/05/21 01:09:48;;;;;;;26.40;12.80;;;;;;;13.72;87.92;100759.58;108460;1274;22732;-81
2023/05/21 01:12:20;;;;;;;26.60;13.10;;;;;;;13.70;87.99;100760.41;108531;1274;25420;-81
2023/05/21 01:14:52;;;;;;;25.10;14.20;;;;;;;13.66;87.90;100754.95;108513;1267;22533;-81
2023/05/21 01:17:23;;;;;;;28.80;13.00;;;;;;;13.61;87.73;100752.36;108456;1266;22540;-80
2023/05/21 01:19:55;;;;;;;23.10;12.70;;;;;;;13.56;87.84;100747.30;108416;1274;22521;-80
2023/05/21 01:22:31;;;;;;;26.90;13.50;;;;;;;13.49;87.65;100746.33;108321;1274;22611;-81
2023/05/21 01:25:02;;;;;;;25.20;12.60;;;;;;;13.43;87.59;100746.08;108559;1266;22546;-81
2023/05/21 01:27:33;;;;;;;26.50;12.00;;;;;;;13.39;87.44;100746.16;108585;1274;24212;-81
2023/05/21 01:30:05;;;;;;;22.10;11.80;;;;;;;13.32;87.53;100742.08;108539;1266;23113;-81
2023/05/21 01:32:42;;;;;;;22.30;12.10;;;;;;;13.25;87.49;100743.03;108632;1264;24273;-81
2023/05/21 01:35:21;;;;;;;23.00;12.40;;;;;;;13.19;87.42;100741.77;108527;1274;22598;-81
2023/05/21 01:37:58;;;;;;;24.20;12.00;;;;;;;13.13;87.41;100740.03;108619;1251;24222;-81
2023/05/21 01:40:38;;;;;;;24.30;12.40;;;;;;;13.08;87.48;100736.64;108569;1269;22581;-81
2023/05/21 01:43:10;;;;;;;22.20;11.50;;;;;;;13.01;87.35;100735.29;110594;1266;23089;-81
2023/05/21 01:45:44;;;;;;;24.10;13.00;;;;;;;12.97;87.34;100732.05;109635;1274;22558;-81
2023/05/21 01:48:17;;;;;;;24.30;12.50;;;;;;;12.96;87.65;100737.55;108332;1274;22533;-80
2023/05/21 01:50:48;;;;;;;23.90;12.20;;;;;;;12.94;87.46;100735.92;108488;1258;22592;-81
2023/05/21 01:53:19;;;;;;;22.10;12.10;;;;;;;12.90;87.42;100733.00;108445;1274;25960;-80
2023/05/21 01:55:50;;;;;;;24.90;12.80;;;;;;;12.86;87.48;100733.23;108572;1266;24209;-81
2023/05/21 01:58:23;;;;;;;24.10;13.30;;;;;;;12.81;87.48;100734.31;108521;1274;22546;-81
2023/05/21 02:00:54;;;;;;;21.30;11.20;;;;;;;12.75;87.52;100732.64;108578;1270;22560;-81
2023/05/21 02:03:29;;;;;;;28.40;12.30;;;;;;;12.68;87.43;100734.75;108588;1267;22522;-81
2023/05/21 02:06:01;;;;;;;22.80;11.40;;;;;;;12.62;87.63;100728.63;108570;1274;22518;-81
2023/05/21 02:08:32;;;;;;;24.50;12.10;;;;;;;12.58;87.65;100725.58;108564;1274;22553;-81
2023/05/21 02:11:03;;;;;;;23.80;11.30;;;;;;;12.56;87.59;100725.59;108626;1270;23233;-81
2023/05/21 02:13:39;;;;;;;23.40;11.50;;;;;;;12.55;87.53;100725.98;108547;1270;23282;-81
2023/05/21 02:16:10;;;;;;;21.20;11.00;;;;;;;12.55;87.64;100725.73;108469;1266;22601;-81
2023/05/21 02:18:42;;;;;;;26.10;12.20;;;;;;;12.55;87.80;100724.45;108327;1274;23619;-81
2023/05/21 02:21:13;;;;;;;24.30;11.70;;;;;;;12.55;87.82;100723.89;108401;1274;22540;-81
2023/05/21 02:23:44;;;;;;;24.10;11.40;;;;;;;12.53;87.74;100727.13;108445;1251;22563;-81
2023/05/21 02:26:16;;;;;;;20.80;10.50;;;;;;;12.50;87.87;100727.48;108519;1273;24234;-81
2023/05/21 02:28:47;;;;;;;21.40;11.20;;;;;;;12.48;88.01;100731.91;108669;1266;22642;-81
2023/05/21 02:31:17;;;;;;;25.90;12.50;;;;;;;12.46;87.93;100733.96;108570;1274;22533;-81
2023/05/21 02:33:48;;;;;;;28.70;11.20;;;;;;;12.41;88.06;100731.79;108606;1270;22613;-81
2023/05/21 02:36:19;;;;;;;23.10;11.70;;;;;;;12.39;88.07;100728.89;108466;1274;22563;-81
2023/05/21 02:38:49;;;;;;;22.60;11.10;;;;;;;12.36;88.11;100729.61;108553;1267;22556;-84
2023/05/21 02:41:22;;;;;;;22.40;11.80;;;;;;;12.33;88.21;100725.77;108509;1274;22536;-84
2023/05/21 02:43:55;;;;;;;24.40;11.30;;;;;;;12.29;88.14;100728.45;108504;1263;22632;-84
2023/05/21 02:46:26;;;;;;;21.40;11.40;;;;;;;12.26;88.26;100723.49;108571;1274;22536;-84
2023/05/21 02:48:57;;;;;;;23.80;10.80;;;;;;;12.25;88.25;100721.29;108636;1266;22568;-84
2023/05/21 02:51:28;;;;;;;23.80;12.70;;;;;;;12.21;88.10;100718.06;108541;1271;22517;-84
2023/05/21 02:53:59;;;;;;;23.90;11.60;;;;;;;12.16;88.12;100716.64;108539;1274;22523;-84
2023/05/21 02:56:30;;;;;;;23.70;12.30;;;;;;;12.09;88.15;100717.46;108615;1272;22823;-84
2023/05/21 02:59:01;;;;;;;26.20;12.20;;;;;;;12.05;88.27;100718.81;108509;1267;25446;-84
2023/05/21 03:01:31;;;;;;;25.70;12.90;;;;;;;12.02;88.06;100714.23;108449;1266;22551;-84
2023/05/21 03:04:02;;;;;;;22.20;10.50;;;;;;;12.00;88.19;100716.61;108468;1270;22476;-84
2023/05/21 03:06:33;;;;;;;26.30;12.70;;;;;;;11.94;88.55;100712.35;108587;1267;22524;-84
2023/05/21 03:09:04;;;;;;;27.40;12.80;;;;;;;11.88;88.72;100708.83;108631;1274;24790;-84
2023/05/21 03:11:35;;;;;;;25.60;13.70;;;;;;;11.84;88.68;100710.29;108596;1274;23254;-84
2023/05/21 03:14:06;;;;;;;21.50;11.00;;;;;;;11.82;88.85;100707.93;108511;1263;22939;-84
2023/05/21 03:16:37;;;;;;;23.10;12.00;;;;;;;11.80;88.86;100711.66;108540;1270;22520;-84
2023/05/21 03:19:10;;;;;;;22.30;11.70;;;;;;;11.76;88.99;100713.15;108594;1274;22544;-84
2023/05/21 03:21:41;;;;;;;23.50;11.20;;;;;;;11.73;89.03;100712.46;108510;1274;22484;-84
2023/05/21 03:24:14;;;;;;;24.50;12.90;;;;;;;11.72;88.99;100713.81;108515;1274;23812;-85
2023/05/21 03:26:49;;;;;;;22.20;11.10;;;;;;;11.70;89.05;100713.73;108616;1274;22737;-84
2023/05/21 03:29:20;;;;;;;24.00;11.30;;;;;;;11.70;89.15;100714.54;108480;1274;25168;-84
2023/05/21 03:31:52;;;;;;;23.80;11.70;;;;;;;11.73;89.15;100712.63;108466;1266;24366;-84
2023/05/21 03:34:24;;;;;;;21.70;11.30;;;;;;;11.75;89.36;100715.92;108488;1270;22521;-84
2023/05/21 03:36:54;;;;;;;28.60;11.80;;;;;;;11.77;89.40;100716.47;108534;1266;22551;-84
2023/05/21 03:39:25;;;;;;;21.00;10.60;;;;;;;11.79;89.41;100716.63;108690;1273;22561;-84
2023/05/21 03:41:56;;;;;;;23.40;11.20;;;;;;;11.80;89.40;100714.52;108523;1272;25306;-84
2023/05/21 03:44:31;;;;;;;22.70;12.10;;;;;;;11.81;89.44;100710.06;108451;1270;22533;-84
2023/05/21 03:47:02;;;;;;;20.80;11.20;;;;;;;11.80;89.69;100709.48;108600;1274;22479;-84
2023/05/21 03:49:32;;;;;;;22.90;10.70;;;;;;;11.80;89.91;100710.90;108526;1269;22566;-85
2023/05/21 03:52:03;;;;;;;21.30;11.40;;;;;;;11.82;90.05;100711.30;108564;1263;22958;-84
2023/05/21 03:54:34;;;;;;;29.10;11.80;;;;;;;11.83;90.19;100713.09;108589;1267;22521;-85
2023/05/21 03:57:05;;;;;;;20.90;11.50;;;;;;;11.85;90.45;100717.83;108655;1269;22649;-84
2023/05/21 03:59:36;;;;;;;20.60;10.40;;;;;;;11.88;90.50;100716.91;108616;1270;22513;-84
2023/05/21 04:02:07;;;;;;;22.70;11.40;;;;;;;11.90;90.52;100716.70;108667;1267;22536;-84
2023/05/21 04:04:38;;;;;;;22.80;12.10;;;;;;;11.94;90.68;100721.27;108500;1274;22630;-83
2023/05/21 04:07:13;;;;;;;23.10;11.30;;;;;;;11.99;90.68;100722.86;108497;1273;22520;-83
2023/05/21 04:09:46;;;;;;;21.90;11.80;;;;;;;12.06;90.80;100722.23;108382;1267;22486;-83
2023/05/21 04:12:18;;;;;;;23.90;12.00;;;;;;;12.10;90.81;100718.14;108487;1263;22547;-83
2023/05/21 04:14:50;;;;;;;24.20;11.50;;;;;;;12.14;91.10;100714.42;108581;1267;22551;-84
2023/05/21 04:17:21;;;;;;;23.40;12.60;;;;;;;12.20;91.24;100715.08;108626;1274;25420;-83
2023/05/21 04:19:52;;;;;;;23.20;11.00;;;;;;;12.26;91.09;100715.34;108700;1266;22544;-83
2023/05/21 04:22:25;;;;;;;25.20;13.10;;;;;;;12.32;91.22;100714.81;108549;1253;22984;-83
2023/05/21 04:24:59;;;;;;;23.40;12.30;;;;;;;12.38;91.41;100712.63;108532;1267;24227;-84
2023/05/21 04:27:30;;;;;;;21.80;10.90;;;;;;;12.46;91.87;100717.41;108593;1267;22561;-84
2023/05/21 04:30:03;;;;;;;27.30;12.90;;;;;;;12.53;91.86;100719.64;108465;1274;23433;-83
2023/05/21 04:32:34;;;;;;;27.60;13.50;;;;;;;12.63;92.56;100717.70;108550;1270;23378;-83
2023/05/21 04:35:06;;;;;;;26.90;14.50;;;;;;;12.72;92.97;100720.86;108553;1271;22540;-83
2023/05/21 04:37:40;;;;;;;27.80;15.10;;;;;;;12.82;93.27;100716.09;108601;1274;23022;-83
2023/05/21 04:40:16;;;;;;;29.20;13.40;;;;;;;12.94;93.97;100722.82;108542;1266;22550;-83
2023/05/21 04:42:51;;;;;;;27.20;13.30;;;;;;;13.06;94.00;100718.77;108589;1274;22598;-83
2023/05/21 04:45:23;;;;;;;28.10;13.10;;;;;;;13.19;94.12;100717.66;108599;1274;25630;-83
2023/05/21 04:47:54;;;;;;;25.10;13.80;;;;;;;13.33;94.29;100722.98;108509;1271;22478;-83
2023/05/21 04:50:24;;;;;;;26.50;12.80;;;;;;;13.48;94.35;100721.42;108467;1266;22565;-83
2023/05/21 04:52:55;;;;;;;22.90;12.90;;;;;;;13.61;94.40;100715.00;108515;1270;22560;-83
2023/05/21 04:55:27;;;;;;;30.60;12.70;;;;;;;13.76;94.34;100717.73;108382;1269;22493;-83
2023/05/21 04:57:58;;;;;;;32.30;13.30;;;;;;;13.91;94.20;100715.78;108549;1266;22550;-83
2023/05/21 05:00:29;;;;;;;23.00;12.50;;;;;;;14.03;94.00;100717.11;108580;1274;22598;-83
2023/05/21 05:03:00;;;;;;;22.00;11.00;;;;;;;14.18;94.05;100719.45;108579;1272;22539;-82
2023/05/21 05:05:31;;;;;;;25.90;12.20;;;;;;;14.31;93.81;100722.03;108639;1266;22571;-83
2023/05/21 05:08:02;;;;;;;26.60;11.50;;;;;;;14.44;93.75;100721.46;108666;1266;22554;-83
2023/05/21 05:10:33;;;;;;;22.20;11.70;;;;;;;14.57;93.59;100718.23;108595;1269;22471;-83
2023/05/21 05:13:04;;;;;;;19.20;9.20;;;;;;;14.70;93.31;100720.82;108545;1271;22632;-84
2023/05/21 05:15:35;;;;;;;23.90;11.30;;;;;;;14.81;92.98;100721.64;108638;1266;22536;-81
2023/05/21 05:18:07;;;;;;;23.50;10.10;;;;;;;14.93;92.85;100725.80;108588;1274;23025;-81
2023/05/21 05:20:38;;;;;;;21.00;10.50;;;;;;;15.07;92.65;100725.55;108612;1266;22572;-81
2023/05/21 05:23:09;;;;;;;21.30;11.40;;;;;;;15.18;92.34;100724.13;108724;1270;23286;-82
2023/05/21 05:25:40;;;;;;;28.00;13.50;;;;;;;15.30;92.19;100724.93;108730;1266;23157;-81
2023/05/21 05:28:11;;;;;;;23.10;10.30;;;;;;;15.42;92.17;100723.69;109325;1270;22562;-81
2023/05/21 05:30:42;;;;;;;23.80;10.30;;;;;;;15.53;91.91;100721.27;109519;1266;22599;-82
2023/05/21 05:33:13;;;;;;;24.30;9.50;;;;;;;15.64;91.27;100716.64;108960;1274;22463;-81
2023/05/21 05:35:44;;;;;;;25.70;13.50;;;;;;;15.75;90.81;100716.35;108620;1266;23262;-80
2023/05/21 05:38:15;;;;;;;31.00;15.40;;;;;;;15.87;90.57;100714.77;108595;1274;23012;-82
2023/05/21 05:40:46;;;;;;;21.00;9.80;;;;;;;15.99;90.08;100713.04;108520;1267;22485;-82
2023/05/21 05:43:17;;;;;;;19.90;9.70;;;;;;;16.09;90.11;100710.73;108500;1250;24234;-82
2023/05/21 05:45:48;;;;;;;19.40;7.60;;;;;;;16.19;89.99;100705.23;108466;1273;22601;-83
2023/05/21 05:48:19;;;;;;;18.90;8.40;;;;;;;16.30;89.46;100705.17;108450;1274;22526;-83
2023/05/21 05:50:53;;;;;;;19.90;7.90;;;;;;;16.40;89.10;100707.61;108588;1274;22549;-82
2023/05/21 05:53:24;;;;;;;17.40;7.90;;;;;;;16.49;88.95;100708.77;108650;1266;23349;-82
2023/05/21 05:55:55;;;;;;;20.00;8.20;;;;;;;16.60;88.79;100708.86;108616;1270;22476;-83
2023/05/21 05:58:26;;;;;;;19.70;9.00;;;;;;;16.70;88.53;100702.73;108627;1266;22584;-82
2023/05/21 06:00:56;;;;;;;21.80;10.40;;;;;;;16.81;88.10;100699.58;108720;1266;22555;-82
2023/05/21 06:03:28;;;;;;;18.30;7.80;;;;;;;16.90;87.74;100700.96;108660;1266;23258;-81
2023/05/21 06:05:59;;;;;;;17.10;7.70;;;;;;;17.00;87.43;100698.55;108649;1267;22442;-83
2023/05/21 06:08:30;;;;;;;17.10;7.20;;;;;;;17.10;87.31;100697.36;108550;1266;24289;-80
2023/05/21 06:11:00;;;;;;;18.70;6.90;;;;;;;17.20;86.97;100695.05;108530;1266;24199;-79
2023/05/21 06:13:31;;;;;;;16.00;7.20;;;;;;;17.29;86.68;100694.89;108503;1266;22491;-79
2023/05/21 06:16:02;;;;;;;16.60;7.20;;;;;;;17.38;86.61;100694.73;108481;1266;24347;-78
2023/05/21 06:18:33;;;;;;;16.30;6.30;;;;;;;17.46;86.26;100692.50;108575;1266;22471;-80
2023/05/21 06:21:04;;;;;;;19.40;7.50;;;;;;;17.55;86.01;100689.84;108567;1264;22496;-78
2023/05/21 06:23:36;;;;;;;23.00;9.20;;;;;;;17.65;85.72;100694.19;108447;1267;22612;-80
2023/05/21 06:26:07;;;;;;;19.60;8.10;;;;;;;17.75;85.19;100696.73;108514;1266;24276;-79
2023/05/21 06:28:38;;;;;;;22.50;6.50;;;;;;;17.85;84.57;100694.44;108449;1266;22543;-79
2023/05/21 06:31:08;;;;;;;17.30;5.80;;;;;;;17.94;84.41;100694.10;108438;1266;22535;-80
2023/05/21 06:33:39;;;;;;;14.50;5.70;;;;;;;18.03;84.30;100695.24;108513;1266;22512;-80
2023/05/21 06:36:10;;;;;;;19.00;6.20;;;;;;;18.12;83.74;100690.48;108619;1270;22522;-80
2023/05/21 06:38:41;;;;;;;14.00;6.20;;;;;;;18.22;82.97;100688.52;108713;1260;22646;-78
2023/05/21 06:41:12;;;;;;;15.10;6.10;;;;;;;18.32;82.21;100691.15;108545;1262;22483;-79
2023/05/21 06:43:42;;;;;;;17.60;7.20;;;;;;;18.41;82.25;100687.61;108488;1266;22889;-79
2023/05/21 06:46:13;;;;;;;15.40;6.30;;;;;;;18.49;82.34;100691.91;108450;1266;23174;-80
2023/05/21 06:48:46;;;;;;;17.10;6.80;;;;;;;18.59;81.80;100694.05;108490;1267;22540;-81
2023/05/21 06:51:17;;;;;;;15.70;6.00;;;;;;;18.69;81.47;100692.70;108533;1266;23246;-80
2023/05/21 06:53:48;;;;;;;16.80;6.70;;;;;;;18.78;81.32;100689.30;108507;1266;22700;-83
2023/05/21 06:56:18;;;;;;;17.10;6.40;;;;;;;18.87;80.98;100691.74;108663;1267;24286;-81
2023/05/21 06:58:49;;;;;;;20.50;8.00;;;;;;;18.94;80.32;100689.54;108679;1267;22526;-81
2023/05/21 07:01:21;;;;;;;17.00;6.80;;;;;;;19.00;80.32;100691.50;108471;1274;22598;-80
2023/05/21 07:03:51;;;;;;;17.50;7.10;;;;;;;19.07;80.03;100685.46;108387;1272;22473;-80
2023/05/21 07:06:22;;;;;;;15.20;5.40;;;;;;;19.15;79.47;100678.76;108205;1273;22667;-80
2023/05/21 07:08:53;;;;;;;14.60;6.10;;;;;;;19.23;79.04;100678.88;108201;1274;23715;-81
2023/05/21 07:11:27;;;;;;;17.40;6.50;;;;;;;19.29;78.18;100677.43;108628;1270;24206;-83
2023/05/21 07:14:00;;;;;;;15.40;6.80;;;;;;;19.35;77.92;100681.42;108429;1266;25297;-84
2023/05/21 07:16:31;;;;;;;19.90;7.00;;;;;;;19.41;77.93;100682.20;108628;1267;22518;-84
2023/05/21 07:19:02;;;;;;;13.30;5.10;;;;;;;19.47;77.55;100677.30;108646;1264;22469;-84
2023/05/21 07:21:32;;;;;;;12.80;4.80;;;;;;;19.53;77.31;100678.52;108384;1266;22527;-84
2023/05/21 07:24:03;;;;;;;11.50;4.90;;;;;;;19.60;77.07;100676.91;108500;1274;22593;-84
2023/05/21 07:26:34;;;;;;;17.80;5.50;;;;;;;19.68;77.33;100675.89;108594;1271;22510;-85
2023/05/21 07:29:06;;;;;;;18.50;8.50;;;;;;;19.77;76.98;100671.75;108557;1266;22666;-84
2023/05/21 07:31:37;;;;;;;15.80;5.40;;;;;;;19.86;76.66;100667.73;108481;1274;22565;-84
2023/05/21 07:34:08;;;;;;;16.60;4.90;;;;;;;19.97;76.55;100670.17;108530;1266;23469;-84
2023/05/21 07:36:38;;;;;;;15.10;4.60;;;;;;;20.06;75.44;100671.29;108459;1266;25987;-84
2023/05/21 07:39:09;;;;;;;14.30;5.00;;;;;;;20.14;75.70;100672.69;108442;1274;22576;-83
2023/05/21 07:41:40;;;;;;;14.80;5.20;;;;;;;20.27;75.39;100669.41;108384;1269;22546;-83
2023/05/21 07:44:10;;;;;;;14.00;5.00;;;;;;;20.36;74.85;100668.01;108617;1274;22648;-83
2023/05/21 07:46:41;;;;;;;14.40;5.50;;;;;;;20.45;74.41;100668.90;108619;1269;23880;-84
2023/05/21 07:49:15;;;;;;;13.10;4.60;;;;;;;20.54;74.23;100666.33;108513;1270;23284;-84
2023/05/21 07:51:46;;;;;;;15.70;5.70;;;;;;;20.65;74.04;100665.30;108525;1272;23045;-83
2023/05/21 07:54:18;;;;;;;21.00;9.50;;;;;;;20.73;74.10;100661.23;108404;1266;22570;-84
2023/05/21 07:56:49;;;;;;;20.30;7.00;;;;;;;20.82;73.47;100661.63;108443;1270;24195;-83
2023/05/21 07:59:20;;;;;;;16.30;4.60;;;;;;;20.89;73.26;100666.25;108518;1272;25061;-84
2023/05/21 08:01:51;;;;;;;17.60;6.40;;;;;;;20.96;72.99;100664.38;108530;1271;22636;-84
2023/05/21 08:04:22;;;;;;;14.70;5.30;;;;;;;21.03;72.53;100659.64;108599;1267;22533;-83
2023/05/21 08:06:53;;;;;;;12.80;3.70;;;;;;;21.11;72.40;100662.19;108619;1272;22564;-84
2023/05/21 08:09:24;;;;;;;18.70;6.80;;;;;;;21.18;71.96;100662.59;108427;1272;24756;-82
2023/05/21 08:11:55;;;;;;;11.30;4.10;;;;;;;21.25;71.77;100661.90;108330;1265;24369;-84
2023/05/21 08:14:26;;;;;;;15.20;4.90;;;;;;;21.32;71.27;100663.79;108387;1266;25603;-83
2023/05/21 08:16:57;;;;;;;31.70;17.10;;;;;;;21.39;70.99;100656.83;108560;1273;22576;-84
2023/05/21 08:19:27;;;;;;;20.50;10.00;;;;;;;21.47;70.48;100658.95;108608;1270;23024;-83
2023/05/21 08:21:58;;;;;;;13.50;4.40;;;;;;;21.53;69.68;100657.30;108352;1263;22598;-83
2023/05/21 08:24:29;;;;;;;15.00;4.40;;;;;;;21.58;69.60;100655.70;108431;1267;22573;-83
2023/05/21 08:27:00;;;;;;;12.40;4.10;;;;;;;21.63;68.89;100657.26;108562;1267;22589;-82
2023/05/21 08:29:31;;;;;;;12.60;4.40;;;;;;;21.63;68.23;100656.92;108538;1272;23836;-83
2023/05/21 08:32:02;;;;;;;17.20;5.90;;;;;;;21.63;67.62;100658.05;108323;1272;22555;-83
2023/05/21 08:34:33;;;;;;;15.10;4.80;;;;;;;21.65;68.03;100654.48;108355;1266;22549;-83
2023/05/21 08:37:04;;;;;;;16.00;5.80;;;;;;;21.70;68.21;100654.10;108467;1267;25599;-83
2023/05/21 08:39:35;;;;;;;16.60;4.60;;;;;;;21.77;68.01;100657.60;108512;1267;24199;-84
2023/05/21 08:42:15;;;;;;;15.80;5.10;;;;;;;21.84;67.13;100655.27;108368;1274;22576;-83
2023/05/21 08:44:51;;;;;;;;;;;;;;;21.91;67.40;100656.28;108401;1270;23907;-83
2023/05/21 08:47:28;;;;;;;9.50;3.00;;;;;;;21.99;66.98;100652.21;108403;1271;24350;-83
2023/05/21 08:50:01;;;;;;;10.00;2.70;;;;;;;22.08;65.95;100654.04;108557;1271;25746;-84
2023/05/21 08:52:32;;;;;;;9.10;3.00;;;;;;;22.13;66.08;100653.10;108502;1271;22515;-84
2023/05/21 08:55:06;;;;;;;10.20;2.70;;;;;;;22.18;65.41;100655.37;108593;1273;22638;-84
2023/05/21 08:57:40;;;;;;;10.80;2.60;;;;;;;22.23;64.80;100653.80;108412;1262;22643;-84
2023/05/21 09:00:13;;;;;;;13.80;3.00;;;;;;;22.26;64.46;100653.73;108488;1263;22614;-85
2023/05/21 09:02:45;;;;;;;14.60;3.00;;;;;;;22.32;64.66;100651.44;108479;1267;22555;-84
2023/05/21 09:05:25;;;;;;;12.30;3.80;;;;;;;22.36;63.82;100649.11;108537;1271;23949;-85
2023/05/21 09:08:06;;;;;;;10.70;3.10;;;;;;;22.39;63.53;100648.38;108548;1269;22633;-85
2023/05/21 09:10:42;;;;;;;10.40;3.20;;;;;;;22.42;63.97;100648.04;108552;1267;24225;-85
2023/05/21 09:13:16;;;;;;;13.40;3.10;;;;;;;22.48;63.43;100649.92;108455;1271;22459;-85
2023/05/21 09:15:47;;;;;;;10.90;2.90;;;;;;;22.51;62.67;100651.10;108560;1269;22479;-84
2023/05/21 09:18:18;;;;;;;8.70;2.70;;;;;;;22.56;62.48;100650.89;108232;1271;22559;-82
2023/05/21 09:20:49;;;;;;;9.30;2.90;;;;;;;22.61;61.92;100643.81;108389;1272;22475;-85
2023/05/21 09:23:20;;;;;;;9.80;2.50;;;;;;;22.62;62.03;100643.89;108671;1274;22569;-84
2023/05/21 09:25:52;;;;;;;7.80;2.60;;;;;;;22.68;61.85;100647.48;108476;1266;22549;-84
2023/05/21 09:28:22;;;;;;;12.20;2.70;;;;;;;22.74;61.87;100647.71;108424;1266;22540;-84
2023/05/21 09:30:54;;;;;;;7.80;2.50;;;;;;;22.81;61.79;100646.38;108500;1271;22521;-84
2023/05/21 09:33:29;;;;;;;13.90;2.70;;;;;;;22.88;61.54;100648.11;108433;1267;22709;-84
2023/05/21 09:36:00;;;;;;;9.80;2.80;;;;;;;22.96;61.36;100645.48;108356;1274;22473;-84
2023/05/21 09:38:33;;;;;;;11.70;3.10;;;;;;;23.03;60.94;100643.70;108419;1271;22479;-84
2023/05/21 09:41:08;;;;;;;9.90;2.10;;;;;;;23.10;60.29;100640.26;108305;1273;24305;-85
2023/05/21 09:43:41;;;;;;;10.20;2.20;;;;;;;23.15;59.34;100640.91;108408;1267;22522;-87
2023/05/21 09:46:12;;;;;;;9.50;2.50;;;;;;;23.19;59.31;100641.17;108477;1273;22518;-85
2023/05/21 09:48:47;;;;;;;10.90;2.60;;;;;;;23.22;58.82;100641.09;108594;1267;25558;-84
2023/05/21 09:51:20;;;;;;;7.80;2.00;;;;;;;23.26;58.74;100635.84;108532;1260;22541;-82
2023/05/21 09:53:56;;;;;;;10.30;2.30;;;;;;;23.30;58.59;100630.82;108553;1271;25411;-82
2023/05/21 09:56:30;;;;;;;7.80;2.10;;;;;;;23.34;58.23;100634.21;108412;1266;24199;-81
2023/05/21 09:59:04;;;;;;;9.80;2.50;;;;;;;23.37;58.27;100624.29;108363;1267;22551;-83
2023/05/21 10:01:36;;;;;;;12.20;2.30;;;;;;;23.41;57.67;100623.56;108336;1267;22532;-83
2023/05/21 10:04:10;;;;;;;8.70;2.30;;;;;;;23.47;57.66;100620.55;108337;1271;22556;-83
2023/05/21 10:06:44;;;;;;;7.60;1.80;;;;;;;23.53;57.37;100621.84;108339;1267;22553;-80
2023/05/21 10:09:19;;;;;;;10.30;2.60;;;;;;;23.57;56.31;100616.05;108278;1270;24183;-81
2023/05/21 10:11:52;;;;;;;7.50;2.30;;;;;;;23.58;56.07;100614.88;108270;1266;22517;-82
2023/05/21 10:14:25;;;;;;;9.10;2.40;;;;;;;23.63;56.01;100617.65;108319;1266;22587;-83
2023/05/21 10:16:57;;;;;;;11.80;2.50;;;;;;;23.69;55.73;100614.26;108366;1272;25419;-82
2023/05/21 10:19:30;;;;;;;10.80;2.30;;;;;;;23.73;55.11;100613.86;108454;1266;24261;-82
2023/05/21 10:22:04;;;;;;;7.70;2.10;;;;;;;23.75;55.01;100607.83;108417;1267;26541;-82
2023/05/21 10:24:36;;;;;;;9.70;2.70;;;;;;;23.79;55.07;100603.56;108468;1266;24648;-82
2023/05/21 10:27:09;;;;;;;11.90;2.70;;;;;;;23.84;54.46;100602.90;108296;1270;25476;-82
2023/05/21 10:29:41;;;;;;;8.80;2.20;;;;;;;23.92;54.78;100604.94;108336;1266;22883;-82
2023/05/21 10:32:14;;;;;;;10.00;2.00;;;;;;;23.95;53.70;100602.98;108290;1272;25605;-84
2023/05/21 10:34:47;;;;;;;7.50;1.90;;;;;;;23.93;52.55;100601.36;108405;1273;22617;-83
2023/05/21 10:37:18;;;;;;;12.60;2.80;;;;;;;23.94;53.52;100598.73;108435;1271;22565;-84
2023/05/21 10:39:49;;;;;;;11.30;2.80;;;;;;;24.00;53.39;100599.51;108381;1260;22455;-83
2023/05/21 10:42:27;;;;;;;10.00;1.70;;;;;;;24.06;52.94;100597.95;108353;1272;25224;-84
2023/05/21 10:45:16;;;;;;;6.60;1.90;;;;;;;24.13;52.92;100597.12;108444;1272;22537;-84
2023/05/21 10:48:07;;;;;;;5.80;1.80;;;;;;;24.20;52.40;100592.45;108462;1272;22479;-84
2023/05/21 10:50:58;;;;;;;6.80;1.30;;;;;;;24.21;51.81;100589.75;108354;1267;23187;-83
2023/05/21 10:53:43;;;;;;;7.50;1.90;;;;;;;24.19;51.13;100583.98;108374;1271;25566;-83
2023/05/21 10:56:25;;;;;;;8.80;1.70;;;;;;;24.24;51.51;100580.70;108346;1266;22643;-83
2023/05/21 10:59:12;;;;;;;10.50;1.50;;;;;;;24.27;50.27;100582.46;108331;1267;25223;-84
2023/05/21 11:01:44;;;;;;;7.30;1.40;;;;;;;24.28;49.94;100583.89;108392;1272;22643;-83
2023/05/21 11:04:16;;;;;;;8.20;1.40;;;;;;;24.31;49.61;100584.27;108366;1272;22513;-83
2023/05/21 11:06:49;;;;;;;7.70;1.30;;;;;;;24.30;48.30;100583.36;108463;1270;22456;-83
2023/05/21 11:09:20;;;;;;;6.40;1.50;;;;;;;24.28;48.34;100584.00;108510;1266;24295;-83
2023/05/21 11:11:53;;;;;;;4.70;1.30;;;;;;;24.26;47.93;100580.98;108343;1272;22480;-82
2023/05/21 11:14:34;;;;;;;7.70;1.30;;;;;;;24.28;47.64;100575.80;108343;1270;24397;-81
2023/05/21 11:17:11;;;;;;;7.00;1.20;;;;;;;24.29;47.12;100579.59;108287;1266;24256;-82
2023/05/21 11:19:43;;;;;;;6.80;1.30;;;;;;;24.26;46.92;100574.70;108348;1272;24305;-82
2023/05/21 11:22:25;;;;;;;9.50;1.60;;;;;;;24.26;46.56;100573.83;108382;1271;22514;-83
2023/05/21 11:25:03;;;;;;;7.10;1.10;;;;;;;24.28;45.38;100577.60;108409;1263;22521;-82
2023/05/21 11:27:38;;;;;;;6.00;1.60;;;;;;;24.31;46.61;100573.73;108265;1267;22543;-82
2023/05/21 11:30:16;;;;;;;5.00;1.20;;;;;;;24.35;45.97;100574.80;108295;1274;22666;-82
2023/05/21 11:33:19;;;;;;;4.50;1.60;;;;;;;24.37;45.34;100568.46;108300;1267;22479;-82